sensor_id;sensor_type;location;lat;lon;timestamp;pressure;altitude;pressure_sealevel;temperature;humidity
60832;BME280;46665;51.558;-0.448;2022-12-16T00:00:51;100901.31;;;-2.65;100.00
60832;BME280;46665;51.558;-0.448;2022-12-16T00:03:36;100915.44;;;-2.64;100.00
60832;BME280;46665;51.558;-0.448;2022-12-16T00:06:24;100907.84;;;-2.67;100.00
60832;BME280;46665;51.558;-0.448;2022-12-16T00:09:08;100902.06;;;-2.71;100.00
60832;BME280;46665;51.558;-0.448;2022-12-16T00:11:53;100903.00;;;-2.78;100.00
60832;BME280;46665;51.558;-0.448;2022-12-16T00:14:37;100902.81;;;-2.77;100.00
60832;BME280;46665;51.558;-0.448;2022-12-16T00:17:20;100902.81;;;-2.77;100.00
60832;BME280;46665;51.558;-0.448;2022-12-16T00:20:05;100906.66;;;-2.79;100.00
60832;BME280;46665;51.558;-0.448;2022-12-16T00:22:50;100905.66;;;-2.78;100.00
60832;BME280;46665;51.558;-0.448;2022-12-16T00:25:34;100903.19;;;-2.80;100.00
60832;BME280;46665;51.558;-0.448;2022-12-16T00:28:18;100906.28;;;-2.76;100.00
60832;BME280;46665;51.558;-0.448;2022-12-16T00:31:05;100907.31;;;-2.77;100.00
60832;BME280;46665;51.558;-0.448;2022-12-16T00:33:49;100903.00;;;-2.78;100.00
60832;BME280;46665;51.558;-0.448;2022-12-16T00:36:35;100908.13;;;-2.77;100.00
60832;BME280;46665;51.558;-0.448;2022-12-16T00:39:19;100907.31;;;-2.77;100.00
60832;BME280;46665;51.558;-0.448;2022-12-16T00:42:03;100906.28;;;-2.76;100.00
60832;BME280;46665;51.558;-0.448;2022-12-16T00:44:47;100904.81;;;-2.79;100.00
60832;BME280;46665;51.558;-0.448;2022-12-16T00:47:30;100921.28;;;-2.75;100.00
60832;BME280;46665;51.558;-0.448;2022-12-16T00:50:15;100911.44;;;-2.75;100.00
60832;BME280;46665;51.558;-0.448;2022-12-16T00:52:59;100910.78;;;-2.77;100.00
60832;BME280;46665;51.558;-0.448;2022-12-16T00:55:43;100904.25;;;-2.74;100.00
60832;BME280;46665;51.558;-0.448;2022-12-16T00:58:27;100903.44;;;-2.75;100.00
60832;BME280;46665;51.558;-0.448;2022-12-16T01:01:11;100899.97;;;-2.75;100.00
60832;BME280;46665;51.558;-0.448;2022-12-16T01:03:56;100906.75;;;-2.73;100.00
60832;BME280;46665;51.558;-0.448;2022-12-16T01:06:40;100906.09;;;-2.75;100.00
60832;BME280;46665;51.558;-0.448;2022-12-16T01:09:24;100909.03;;;-2.70;100.00
60832;BME280;46665;51.558;-0.448;2022-12-16T01:12:08;100908.78;;;-2.75;100.00
60832;BME280;46665;51.558;-0.448;2022-12-16T01:14:52;100908.78;;;-2.75;100.00
60832;BME280;46665;51.558;-0.448;2022-12-16T01:17:36;100905.28;;;-2.75;100.00
60832;BME280;46665;51.558;-0.448;2022-12-16T01:20:19;100904.25;;;-2.74;100.00
60832;BME280;46665;51.558;-0.448;2022-12-16T01:23:04;100898.13;;;-2.75;100.00
60832;BME280;46665;51.558;-0.448;2022-12-16T01:25:51;100906.09;;;-2.75;100.00
60832;BME280;46665;51.558;-0.448;2022-12-16T01:28:36;100910.34;;;-2.80;100.00
60832;BME280;46665;51.558;-0.448;2022-12-16T01:31:20;100916.06;;;-2.84;100.00
60832;BME280;46665;51.558;-0.448;2022-12-16T01:34:04;100916.88;;;-2.83;100.00
60832;BME280;46665;51.558;-0.448;2022-12-16T01:36:48;100920.53;;;-2.84;100.00
60832;BME280;46665;51.558;-0.448;2022-12-16T01:39:32;100927.00;;;-2.93;100.00
60832;BME280;46665;51.558;-0.448;2022-12-16T01:42:19;100925.53;;;-2.96;100.00
60832;BME280;46665;51.558;-0.448;2022-12-16T01:45:39;100940.38;;;-3.01;100.00
60832;BME280;46665;51.558;-0.448;2022-12-16T01:48:33;100944.63;;;-3.07;100.00
60832;BME280;46665;51.558;-0.448;2022-12-16T01:51:38;100952.06;;;-3.17;100.00
60832;BME280;46665;51.558;-0.448;2022-12-16T01:54:25;100953.06;;;-3.18;100.00
60832;BME280;46665;51.558;-0.448;2022-12-16T01:57:14;100965.09;;;-3.22;100.00
60832;BME280;46665;51.558;-0.448;2022-12-16T02:00:00;100967.56;;;-3.21;100.00
60832;BME280;46665;51.558;-0.448;2022-12-16T02:02:45;100962.63;;;-3.24;100.00
60832;BME280;46665;51.558;-0.448;2022-12-16T02:05:32;100969.97;;;-3.26;100.00
60832;BME280;46665;51.558;-0.448;2022-12-16T02:08:19;100969.84;;;-3.33;100.00
60832;BME280;46665;51.558;-0.448;2022-12-16T02:17:24;100974.59;;;-3.43;100.00
60832;BME280;46665;51.558;-0.448;2022-12-16T02:23:32;100977.53;;;-3.53;100.00
60832;BME280;46665;51.558;-0.448;2022-12-16T02:33:06;100987.06;;;-3.58;100.00
60832;BME280;46665;51.558;-0.448;2022-12-16T02:39:07;100983.84;;;-3.54;100.00
60832;BME280;46665;51.558;-0.448;2022-12-16T02:44:48;100989.25;;;-3.47;100.00
60832;BME280;46665;51.558;-0.448;2022-12-16T02:47:33;100982.75;;;-3.44;100.00
60832;BME280;46665;51.558;-0.448;2022-12-16T02:50:24;100987.25;;;-3.45;100.00
60832;BME280;46665;51.558;-0.448;2022-12-16T02:53:09;100990.75;;;-3.44;100.00
60832;BME280;46665;51.558;-0.448;2022-12-16T02:56:20;100995.44;;;-3.46;100.00
60832;BME280;46665;51.558;-0.448;2022-12-16T03:04:57;100993.19;;;-3.58;100.00
60832;BME280;46665;51.558;-0.448;2022-12-16T03:07:43;100998.88;;;-3.61;100.00
60832;BME280;46665;51.558;-0.448;2022-12-16T03:10:34;101000.78;;;-3.69;100.00
60832;BME280;46665;51.558;-0.448;2022-12-16T03:13:20;101001.13;;;-3.73;100.00
60832;BME280;46665;51.558;-0.448;2022-12-16T03:16:06;101002.31;;;-3.75;100.00
60832;BME280;46665;51.558;-0.448;2022-12-16T03:18:53;101017.75;;;-3.71;100.00
60832;BME280;46665;51.558;-0.448;2022-12-16T03:21:45;101016.56;;;-3.68;100.00
60832;BME280;46665;51.558;-0.448;2022-12-16T03:24:32;101013.72;;;-3.66;100.00
60832;BME280;46665;51.558;-0.448;2022-12-16T03:27:45;101012.25;;;-3.69;100.00
60832;BME280;46665;51.558;-0.448;2022-12-16T03:30:32;101016.03;;;-3.63;100.00
60832;BME280;46665;51.558;-0.448;2022-12-16T03:33:32;101008.78;;;-3.69;100.00
60832;BME280;46665;51.558;-0.448;2022-12-16T03:36:20;101013.38;;;-3.63;100.00
60832;BME280;46665;51.558;-0.448;2022-12-16T03:39:07;101012.06;;;-3.67;100.00
60832;BME280;46665;51.558;-0.448;2022-12-16T03:41:52;101017.56;;;-3.69;100.00
60832;BME280;46665;51.558;-0.448;2022-12-16T03:44:37;101024.16;;;-3.65;100.00
60832;BME280;46665;51.558;-0.448;2022-12-16T03:47:25;101021.06;;;-3.68;100.00
60832;BME280;46665;51.558;-0.448;2022-12-16T03:50:10;101017.09;;;-3.73;100.00
60832;BME280;46665;51.558;-0.448;2022-12-16T03:52:54;101017.28;;;-3.74;100.00
60832;BME280;46665;51.558;-0.448;2022-12-16T03:55:38;101016.50;;;-3.83;100.00
60832;BME280;46665;51.558;-0.448;2022-12-16T03:58:22;101012.84;;;-3.82;100.00
60832;BME280;46665;51.558;-0.448;2022-12-16T04:01:08;101021.47;;;-3.80;100.00
60832;BME280;46665;51.558;-0.448;2022-12-16T04:03:52;101025.28;;;-3.82;100.00
60832;BME280;46665;51.558;-0.448;2022-12-16T04:06:36;101022.19;;;-3.86;100.00
60832;BME280;46665;51.558;-0.448;2022-12-16T04:09:20;101025.84;;;-3.87;100.00
60832;BME280;46665;51.558;-0.448;2022-12-16T04:12:04;101022.25;;;-3.94;100.00
60832;BME280;46665;51.558;-0.448;2022-12-16T04:15:07;101013.78;;;-3.98;100.00
60832;BME280;46665;51.558;-0.448;2022-12-16T04:18:20;101030.44;;;-4.04;100.00
60832;BME280;46665;51.558;-0.448;2022-12-16T04:21:25;101016.84;;;-4.09;100.00
60832;BME280;46665;51.558;-0.448;2022-12-16T04:24:29;101030.00;;;-4.16;100.00
60832;BME280;46665;51.558;-0.448;2022-12-16T04:27:13;101028.72;;;-4.20;100.00
60832;BME280;46665;51.558;-0.448;2022-12-16T04:30:11;101036.03;;;-4.22;100.00
60832;BME280;46665;51.558;-0.448;2022-12-16T04:33:11;101040.69;;;-4.24;100.00
60832;BME280;46665;51.558;-0.448;2022-12-16T04:36:14;101033.22;;;-4.28;100.00
60832;BME280;46665;51.558;-0.448;2022-12-16T04:39:17;101035.06;;;-4.29;100.00
60832;BME280;46665;51.558;-0.448;2022-12-16T04:42:20;101042.38;;;-4.31;100.00
60832;BME280;46665;51.558;-0.448;2022-12-16T04:45:22;101051.81;;;-4.28;100.00
60832;BME280;46665;51.558;-0.448;2022-12-16T04:48:25;101052.84;;;-4.29;100.00
60832;BME280;46665;51.558;-0.448;2022-12-16T04:51:28;101049.69;;;-4.33;100.00
60832;BME280;46665;51.558;-0.448;2022-12-16T04:54:31;101055.34;;;-4.36;100.00
60832;BME280;46665;51.558;-0.448;2022-12-16T04:57:34;101056.38;;;-4.37;100.00
60832;BME280;46665;51.558;-0.448;2022-12-16T05:00:38;101057.03;;;-4.43;100.00
60832;BME280;46665;51.558;-0.448;2022-12-16T05:03:41;101054.06;;;-4.48;100.00
60832;BME280;46665;51.558;-0.448;2022-12-16T05:06:44;101058.44;;;-4.55;100.00
60832;BME280;46665;51.558;-0.448;2022-12-16T05:09:46;101062.78;;;-4.63;100.00
60832;BME280;46665;51.558;-0.448;2022-12-16T05:12:52;101054.16;;;-4.65;100.00
60832;BME280;46665;51.558;-0.448;2022-12-16T05:15:54;101066.91;;;-4.60;100.00
60832;BME280;46665;51.558;-0.448;2022-12-16T05:18:57;101063.75;;;-4.55;100.00
60832;BME280;46665;51.558;-0.448;2022-12-16T05:22:00;101065.41;;;-4.54;100.00
60832;BME280;46665;51.558;-0.448;2022-12-16T05:25:04;101069.38;;;-4.50;100.00
60832;BME280;46665;51.558;-0.448;2022-12-16T05:28:07;101066.06;;;-4.52;100.00
60832;BME280;46665;51.558;-0.448;2022-12-16T05:31:09;101062.75;;;-4.54;100.00
60832;BME280;46665;51.558;-0.448;2022-12-16T05:34:12;101071.06;;;-4.58;100.00
60832;BME280;46665;51.558;-0.448;2022-12-16T05:37:15;101076.88;;;-4.62;100.00
60832;BME280;46665;51.558;-0.448;2022-12-16T05:40:31;101086.69;;;-4.63;100.00
60832;BME280;46665;51.558;-0.448;2022-12-16T05:43:34;101072.91;;;-4.66;100.00
60832;BME280;46665;51.558;-0.448;2022-12-16T05:46:37;101085.19;;;-4.65;100.00
60832;BME280;46665;51.558;-0.448;2022-12-16T05:49:40;101079.06;;;-4.66;100.00
60832;BME280;46665;51.558;-0.448;2022-12-16T05:52:54;101090.19;;;-4.70;100.00
60832;BME280;46665;51.558;-0.448;2022-12-16T05:55:57;101082.56;;;-4.73;100.00
60832;BME280;46665;51.558;-0.448;2022-12-16T05:59:00;101089.69;;;-4.74;100.00
60832;BME280;46665;51.558;-0.448;2022-12-16T06:02:03;101094.69;;;-4.71;100.00
60832;BME280;46665;51.558;-0.448;2022-12-16T06:05:06;101092.03;;;-4.71;100.00
60832;BME280;46665;51.558;-0.448;2022-12-16T06:08:08;101084.06;;;-4.71;100.00
60832;BME280;46665;51.558;-0.448;2022-12-16T06:11:11;101088.34;;;-4.70;100.00
60832;BME280;46665;51.558;-0.448;2022-12-16T06:14:14;101087.38;;;-4.77;100.00
60832;BME280;46665;51.558;-0.448;2022-12-16T06:17:17;101096.19;;;-4.85;100.00
60832;BME280;46665;51.558;-0.448;2022-12-16T06:20:20;101092.38;;;-4.90;100.00
60832;BME280;46665;51.558;-0.448;2022-12-16T06:23:23;101100.50;;;-4.92;100.00
60832;BME280;46665;51.558;-0.448;2022-12-16T06:26:25;101102.00;;;-4.89;100.00
60832;BME280;46665;51.558;-0.448;2022-12-16T06:29:28;101106.63;;;-4.91;100.00
60832;BME280;46665;51.558;-0.448;2022-12-16T06:32:31;101101.84;;;-4.88;100.00
60832;BME280;46665;51.558;-0.448;2022-12-16T06:35:34;101106.97;;;-4.86;100.00
60832;BME280;46665;51.558;-0.448;2022-12-16T06:38:37;101111.13;;;-4.92;100.00
60832;BME280;46665;51.558;-0.448;2022-12-16T06:41:39;101101.19;;;-4.98;100.00
60832;BME280;46665;51.558;-0.448;2022-12-16T06:44:42;101116.28;;;-4.98;100.00
60832;BME280;46665;51.558;-0.448;2022-12-16T06:47:45;101106.66;;;-4.99;100.00
60832;BME280;46665;51.558;-0.448;2022-12-16T06:50:48;101100.88;;;-5.03;100.00
60832;BME280;46665;51.558;-0.448;2022-12-16T06:53:51;101103.53;;;-5.03;100.00
60832;BME280;46665;51.558;-0.448;2022-12-16T06:56:54;101108.97;;;-5.05;100.00
60832;BME280;46665;51.558;-0.448;2022-12-16T06:59:57;101115.28;;;-5.06;100.00
60832;BME280;46665;51.558;-0.448;2022-12-16T07:03:00;101114.63;;;-5.16;100.00
60832;BME280;46665;51.558;-0.448;2022-12-16T07:06:03;101115.28;;;-5.22;100.00
60832;BME280;46665;51.558;-0.448;2022-12-16T07:09:06;101117.31;;;-5.24;100.00
60832;BME280;46665;51.558;-0.448;2022-12-16T07:12:09;101110.31;;;-5.25;100.00
60832;BME280;46665;51.558;-0.448;2022-12-16T07:15:12;101131.72;;;-5.18;100.00
60832;BME280;46665;51.558;-0.448;2022-12-16T07:18:15;101130.56;;;-5.16;100.00
60832;BME280;46665;51.558;-0.448;2022-12-16T07:21:18;101143.81;;;-5.08;100.00
60832;BME280;46665;51.558;-0.448;2022-12-16T07:24:21;101144.97;;;-5.10;100.00
60832;BME280;46665;51.558;-0.448;2022-12-16T07:27:24;101145.66;;;-5.16;100.00
60832;BME280;46665;51.558;-0.448;2022-12-16T07:30:26;101154.78;;;-5.19;100.00
60832;BME280;46665;51.558;-0.448;2022-12-16T07:33:29;101148.31;;;-5.16;100.00
60832;BME280;46665;51.558;-0.448;2022-12-16T07:36:32;101163.56;;;-5.18;100.00
60832;BME280;46665;51.558;-0.448;2022-12-16T07:39:35;101167.00;;;-5.34;100.00
60832;BME280;46665;51.558;-0.448;2022-12-16T07:42:41;101171.66;;;-5.36;100.00
60832;BME280;46665;51.558;-0.448;2022-12-16T07:45:44;101174.00;;;-5.41;100.00
60832;BME280;46665;51.558;-0.448;2022-12-16T07:48:47;101189.91;;;-5.41;100.00
60832;BME280;46665;51.558;-0.448;2022-12-16T07:51:50;101191.56;;;-5.32;100.00
60832;BME280;46665;51.558;-0.448;2022-12-16T07:54:53;101197.53;;;-5.30;100.00
60832;BME280;46665;51.558;-0.448;2022-12-16T07:57:56;101203.19;;;-5.33;100.00
60832;BME280;46665;51.558;-0.448;2022-12-16T08:00:59;101205.97;;;-5.35;100.00
60832;BME280;46665;51.558;-0.448;2022-12-16T08:04:02;101208.13;;;-5.38;100.00
60832;BME280;46665;51.558;-0.448;2022-12-16T08:07:05;101211.47;;;-5.36;100.00
60832;BME280;46665;51.558;-0.448;2022-12-16T08:10:08;101208.47;;;-5.33;100.00
60832;BME280;46665;51.558;-0.448;2022-12-16T08:13:11;101206.31;;;-5.38;100.00
60832;BME280;46665;51.558;-0.448;2022-12-16T08:16:14;101217.59;;;-5.44;100.00
60832;BME280;46665;51.558;-0.448;2022-12-16T08:19:17;101217.59;;;-5.44;100.00
60832;BME280;46665;51.558;-0.448;2022-12-16T08:22:19;101206.47;;;-5.39;100.00
60832;BME280;46665;51.558;-0.448;2022-12-16T08:25:22;101212.63;;;-5.31;100.00
60832;BME280;46665;51.558;-0.448;2022-12-16T08:28:45;101213.63;;;-5.24;100.00
60832;BME280;46665;51.558;-0.448;2022-12-16T08:31:48;101226.72;;;-5.22;100.00
60832;BME280;46665;51.558;-0.448;2022-12-16T08:34:51;101238.69;;;-5.26;100.00
60832;BME280;46665;51.558;-0.448;2022-12-16T08:37:55;101231.38;;;-5.24;100.00
60832;BME280;46665;51.558;-0.448;2022-12-16T08:40:58;101243.50;;;-5.21;100.00
60832;BME280;46665;51.558;-0.448;2022-12-16T08:44:01;101241.00;;;-5.15;100.00
60832;BME280;46665;51.558;-0.448;2022-12-16T08:47:04;101234.72;;;-5.14;100.00
60832;BME280;46665;51.558;-0.448;2022-12-16T08:50:07;101252.97;;;-5.11;100.00
60832;BME280;46665;51.558;-0.448;2022-12-16T08:53:09;101245.28;;;-5.22;100.00
60832;BME280;46665;51.558;-0.448;2022-12-16T08:56:13;101249.28;;;-5.26;100.00
60832;BME280;46665;51.558;-0.448;2022-12-16T08:59:16;101252.44;;;-5.23;100.00
60832;BME280;46665;51.558;-0.448;2022-12-16T09:02:18;101245.63;;;-5.17;100.00
60832;BME280;46665;51.558;-0.448;2022-12-16T09:05:21;101252.63;;;-5.08;100.00
60832;BME280;46665;51.558;-0.448;2022-12-16T09:08:24;101264.59;;;-5.04;100.00
60832;BME280;46665;51.558;-0.448;2022-12-16T09:11:27;101265.91;;;-4.99;100.00
60832;BME280;46665;51.558;-0.448;2022-12-16T09:14:30;101273.88;;;-4.91;100.00
60832;BME280;46665;51.558;-0.448;2022-12-16T09:17:33;101267.75;;;-4.84;100.00
60832;BME280;46665;51.558;-0.448;2022-12-16T09:20:36;101269.59;;;-4.76;100.00
60832;BME280;46665;51.558;-0.448;2022-12-16T09:23:39;101271.59;;;-4.70;100.00
60832;BME280;46665;51.558;-0.448;2022-12-16T09:26:42;101270.41;;;-4.67;100.00
60832;BME280;46665;51.558;-0.448;2022-12-16T09:29:44;101281.88;;;-4.59;100.00
60832;BME280;46665;51.558;-0.448;2022-12-16T09:32:47;101270.25;;;-4.49;100.00
60832;BME280;46665;51.558;-0.448;2022-12-16T09:35:50;101276.56;;;-4.42;100.00
60832;BME280;46665;51.558;-0.448;2022-12-16T09:38:53;101277.22;;;-4.32;100.00
60832;BME280;46665;51.558;-0.448;2022-12-16T09:42:33;101278.53;;;-4.20;100.00
60832;BME280;46665;51.558;-0.448;2022-12-16T09:46:23;101282.00;;;-4.11;100.00
60832;BME280;46665;51.558;-0.448;2022-12-16T09:49:17;101279.66;;;-4.06;100.00
60832;BME280;46665;51.558;-0.448;2022-12-16T09:52:21;101299.09;;;-3.97;100.00
60832;BME280;46665;51.558;-0.448;2022-12-16T09:55:31;101286.28;;;-3.94;100.00
60832;BME280;46665;51.558;-0.448;2022-12-16T09:58:43;101285.59;;;-3.87;100.00
60832;BME280;46665;51.558;-0.448;2022-12-16T10:01:49;101298.19;;;-3.73;100.00
60832;BME280;46665;51.558;-0.448;2022-12-16T10:04:52;101306.13;;;-3.65;100.00
60832;BME280;46665;51.558;-0.448;2022-12-16T10:08:08;101308.59;;;-3.55;100.00
60832;BME280;46665;51.558;-0.448;2022-12-16T10:11:26;101313.25;;;-3.49;100.00
60832;BME280;46665;51.558;-0.448;2022-12-16T10:14:47;101316.84;;;-3.42;100.00
60832;BME280;46665;51.558;-0.448;2022-12-16T10:17:52;101319.50;;;-3.34;100.00
60832;BME280;46665;51.558;-0.448;2022-12-16T10:20:55;101327.44;;;-3.25;100.00
60832;BME280;46665;51.558;-0.448;2022-12-16T10:27:44;101327.03;;;-3.06;100.00
60832;BME280;46665;51.558;-0.448;2022-12-16T10:30:49;101317.00;;;-3.04;100.00
60832;BME280;46665;51.558;-0.448;2022-12-16T10:33:52;101328.91;;;-2.92;100.00
60832;BME280;46665;51.558;-0.448;2022-12-16T10:36:55;101333.19;;;-2.83;100.00
60832;BME280;46665;51.558;-0.448;2022-12-16T10:39:59;101333.34;;;-2.76;100.00
60832;BME280;46665;51.558;-0.448;2022-12-16T10:43:12;101316.16;;;-2.73;100.00
60832;BME280;46665;51.558;-0.448;2022-12-16T10:46:20;101321.72;;;-2.60;100.00
60832;BME280;46665;51.558;-0.448;2022-12-16T10:49:24;101325.16;;;-2.51;100.00
60832;BME280;46665;51.558;-0.448;2022-12-16T10:52:27;101324.25;;;-2.44;100.00
60832;BME280;46665;51.558;-0.448;2022-12-16T10:58:46;101316.50;;;-2.30;100.00
60832;BME280;46665;51.558;-0.448;2022-12-16T11:01:57;101329.75;;;-2.22;100.00
60832;BME280;46665;51.558;-0.448;2022-12-16T11:05:00;101317.53;;;-2.16;100.00
60832;BME280;46665;51.558;-0.448;2022-12-16T11:08:03;101321.97;;;-2.09;100.00
60832;BME280;46665;51.558;-0.448;2022-12-16T11:11:27;101320.53;;;-1.97;100.00
60832;BME280;46665;51.558;-0.448;2022-12-16T11:14:31;101308.47;;;-1.92;100.00
60832;BME280;46665;51.558;-0.448;2022-12-16T11:17:34;101316.84;;;-1.81;100.00
60832;BME280;46665;51.558;-0.448;2022-12-16T11:20:36;101313.75;;;-1.69;100.00
60832;BME280;46665;51.558;-0.448;2022-12-16T11:23:39;101312.81;;;-1.62;100.00
60832;BME280;46665;51.558;-0.448;2022-12-16T11:26:51;101313.25;;;-1.58;100.00
60832;BME280;46665;51.558;-0.448;2022-12-16T11:29:56;101316.22;;;-1.53;100.00
60832;BME280;46665;51.558;-0.448;2022-12-16T11:33:09;101314.47;;;-1.46;100.00
60832;BME280;46665;51.558;-0.448;2022-12-16T11:36:21;101311.69;;;-1.38;100.00
60832;BME280;46665;51.558;-0.448;2022-12-16T11:39:26;101316.09;;;-1.30;100.00
60832;BME280;46665;51.558;-0.448;2022-12-16T11:42:31;101316.06;;;-1.15;100.00
60832;BME280;46665;51.558;-0.448;2022-12-16T11:45:37;101313.50;;;-1.08;100.00
60832;BME280;46665;51.558;-0.448;2022-12-16T11:48:47;101314.63;;;-0.96;100.00
60832;BME280;46665;51.558;-0.448;2022-12-16T11:51:56;101310.84;;;-0.87;100.00
60832;BME280;46665;51.558;-0.448;2022-12-16T11:55:22;101310.72;;;-0.79;100.00
60832;BME280;46665;51.558;-0.448;2022-12-16T11:58:33;101323.78;;;-0.69;100.00
60832;BME280;46665;51.558;-0.448;2022-12-16T12:01:52;101313.72;;;-0.67;100.00
60832;BME280;46665;51.558;-0.448;2022-12-16T12:04:57;101320.34;;;-0.63;100.00
60832;BME280;46665;51.558;-0.448;2022-12-16T12:08:08;101320.41;;;-0.56;100.00
60832;BME280;46665;51.558;-0.448;2022-12-16T12:11:26;101323.56;;;-0.46;100.00
60832;BME280;46665;51.558;-0.448;2022-12-16T12:18:01;101319.88;;;-0.24;100.00
60832;BME280;46665;51.558;-0.448;2022-12-16T12:21:48;101319.53;;;-0.14;100.00
60832;BME280;46665;51.558;-0.448;2022-12-16T12:25:18;101318.97;;;-0.09;100.00
60832;BME280;46665;51.558;-0.448;2022-12-16T12:28:32;101326.66;;;0.01;100.00
60832;BME280;46665;51.558;-0.448;2022-12-16T12:31:42;101329.19;;;0.09;100.00
60832;BME280;46665;51.558;-0.448;2022-12-16T12:42:06;101327.47;;;0.29;100.00
60832;BME280;46665;51.558;-0.448;2022-12-16T12:48:23;101331.03;;;0.43;100.00
60832;BME280;46665;51.558;-0.448;2022-12-16T12:55:08;101323.06;;;0.50;100.00
60832;BME280;46665;51.558;-0.448;2022-12-16T12:58:12;101317.09;;;0.54;100.00
60832;BME280;46665;51.558;-0.448;2022-12-16T13:01:18;101327.22;;;0.59;100.00
60832;BME280;46665;51.558;-0.448;2022-12-16T13:04:22;101323.13;;;0.63;100.00
60832;BME280;46665;51.558;-0.448;2022-12-16T13:07:25;101319.03;;;0.67;100.00
60832;BME280;46665;51.558;-0.448;2022-12-16T13:10:30;101323.56;;;0.67;100.00
60832;BME280;46665;51.558;-0.448;2022-12-16T13:13:34;101320.47;;;0.70;100.00
60832;BME280;46665;51.558;-0.448;2022-12-16T13:19:54;101316.38;;;0.74;100.00
60832;BME280;46665;51.558;-0.448;2022-12-16T13:22:57;101323.97;;;0.63;100.00
60832;BME280;46665;51.558;-0.448;2022-12-16T13:26:19;101321.06;;;0.58;100.00
60832;BME280;46665;51.558;-0.448;2022-12-16T13:29:30;101323.50;;;0.53;100.00
60832;BME280;46665;51.558;-0.448;2022-12-16T13:32:34;101323.84;;;0.43;100.00
60832;BME280;46665;51.558;-0.448;2022-12-16T13:35:59;101326.09;;;0.40;100.00
60832;BME280;46665;51.558;-0.448;2022-12-16T13:39:22;101314.72;;;0.31;100.00
60832;BME280;46665;51.558;-0.448;2022-12-16T13:55:58;101317.91;;;0.48;100.00
60832;BME280;46665;51.558;-0.448;2022-12-16T13:59:12;101310.09;;;0.53;100.00
60832;BME280;46665;51.558;-0.448;2022-12-16T14:02:26;101318.75;;;0.55;100.00
60832;BME280;46665;51.558;-0.448;2022-12-16T14:05:35;101312.97;;;0.52;100.00
60832;BME280;46665;51.558;-0.448;2022-12-16T14:08:40;101316.69;;;0.51;100.00
60832;BME280;46665;51.558;-0.448;2022-12-16T14:11:57;101319.97;;;0.53;100.00
60832;BME280;46665;51.558;-0.448;2022-12-16T14:15:14;101322.88;;;0.51;100.00
60832;BME280;46665;51.558;-0.448;2022-12-16T14:18:29;101324.91;;;0.49;100.00
60832;BME280;46665;51.558;-0.448;2022-12-16T14:21:41;101332.50;;;0.46;100.00
60832;BME280;46665;51.558;-0.448;2022-12-16T14:24:47;101333.47;;;0.38;100.00
60832;BME280;46665;51.558;-0.448;2022-12-16T14:27:50;101334.28;;;0.32;100.00
60832;BME280;46665;51.558;-0.448;2022-12-16T14:31:23;101330.56;;;0.33;100.00
60832;BME280;46665;51.558;-0.448;2022-12-16T14:34:32;101335.31;;;0.31;100.00
60832;BME280;46665;51.558;-0.448;2022-12-16T14:37:37;101342.06;;;0.27;100.00
60832;BME280;46665;51.558;-0.448;2022-12-16T14:40:40;101346.16;;;0.22;100.00
60832;BME280;46665;51.558;-0.448;2022-12-16T14:43:42;101346.94;;;0.16;100.00
60832;BME280;46665;51.558;-0.448;2022-12-16T14:46:51;101351.41;;;0.09;100.00
60832;BME280;46665;51.558;-0.448;2022-12-16T14:49:55;101358.38;;;0.04;100.00
60832;BME280;46665;51.558;-0.448;2022-12-16T14:53:21;101362.44;;;-0.01;100.00
60832;BME280;46665;51.558;-0.448;2022-12-16T14:56:29;101355.84;;;-0.05;100.00
60832;BME280;46665;51.558;-0.448;2022-12-16T14:59:32;101350.81;;;-0.14;100.00
60832;BME280;46665;51.558;-0.448;2022-12-16T15:02:39;101359.03;;;-0.16;100.00
60832;BME280;46665;51.558;-0.448;2022-12-16T15:05:45;101367.84;;;-0.22;100.00
60832;BME280;46665;51.558;-0.448;2022-12-16T15:08:55;101370.06;;;-0.26;100.00
60832;BME280;46665;51.558;-0.448;2022-12-16T15:12:00;101374.97;;;-0.29;100.00
60832;BME280;46665;51.558;-0.448;2022-12-16T15:15:07;101372.22;;;-0.36;100.00
60832;BME280;46665;51.558;-0.448;2022-12-16T15:18:16;101375.50;;;-0.40;100.00
60832;BME280;46665;51.558;-0.448;2022-12-16T15:21:19;101376.22;;;-0.47;100.00
60832;BME280;46665;51.558;-0.448;2022-12-16T15:24:23;101379.69;;;-0.53;100.00
60832;BME280;46665;51.558;-0.448;2022-12-16T15:27:34;101383.31;;;-0.60;100.00
60832;BME280;46665;51.558;-0.448;2022-12-16T15:33:42;101390.16;;;-0.73;100.00
60832;BME280;46665;51.558;-0.448;2022-12-16T15:36:46;101387.59;;;-0.81;100.00
60832;BME280;46665;51.558;-0.448;2022-12-16T15:39:49;101393.50;;;-0.85;100.00
60832;BME280;46665;51.558;-0.448;2022-12-16T15:42:53;101387.63;;;-0.96;100.00
60832;BME280;46665;51.558;-0.448;2022-12-16T15:45:56;101399.50;;;-0.98;100.00
60832;BME280;46665;51.558;-0.448;2022-12-16T15:48:59;101391.22;;;-1.03;100.00
60832;BME280;46665;51.558;-0.448;2022-12-16T15:52:42;101390.97;;;-1.08;100.00
60832;BME280;46665;51.558;-0.448;2022-12-16T15:55:54;101406.34;;;-1.11;100.00
60832;BME280;46665;51.558;-0.448;2022-12-16T15:59:22;101401.91;;;-1.18;100.00
60832;BME280;46665;51.558;-0.448;2022-12-16T16:02:27;101418.13;;;-1.20;100.00
60832;BME280;46665;51.558;-0.448;2022-12-16T16:05:31;101411.50;;;-1.24;100.00
60832;BME280;46665;51.558;-0.448;2022-12-16T16:08:34;101412.59;;;-1.33;100.00
60832;BME280;46665;51.558;-0.448;2022-12-16T16:11:37;101424.03;;;-1.39;100.00
60832;BME280;46665;51.558;-0.448;2022-12-16T16:14:40;101413.41;;;-1.47;100.00
60832;BME280;46665;51.558;-0.448;2022-12-16T16:17:43;101411.66;;;-1.55;100.00
60832;BME280;46665;51.558;-0.448;2022-12-16T16:20:46;101420.47;;;-1.55;100.00
60832;BME280;46665;51.558;-0.448;2022-12-16T16:23:50;101420.84;;;-1.58;100.00
60832;BME280;46665;51.558;-0.448;2022-12-16T16:26:53;101423.22;;;-1.63;100.00
60832;BME280;46665;51.558;-0.448;2022-12-16T16:29:57;101423.50;;;-1.72;100.00
60832;BME280;46665;51.558;-0.448;2022-12-16T16:33:00;101428.25;;;-1.83;100.00
60832;BME280;46665;51.558;-0.448;2022-12-16T16:36:12;101427.63;;;-1.85;100.00